sensor_id;sensor_type;location;lat;lon;timestamp;P1;durP1;ratioP1;P2;durP2;ratioP2
13408;SDS011;6775;49.574;11.170;2023-07-13T00:01:08;1.20;;;1.10;;
13408;SDS011;6775;49.574;11.170;2023-07-13T00:03:37;2.03;;;1.20;;
13408;SDS011;6775;49.574;11.170;2023-07-13T00:06:07;1.80;;;1.03;;
13408;SDS011;6775;49.574;11.170;2023-07-13T00:08:36;1.47;;;1.30;;
13408;SDS011;6775;49.574;11.170;2023-07-13T00:11:05;2.07;;;1.13;;
13408;SDS011;6775;49.574;11.170;2023-07-13T00:13:33;1.53;;;1.20;;
13408;SDS011;6775;49.574;11.170;2023-07-13T00:16:02;1.40;;;1.30;;
13408;SDS011;6775;49.574;11.170;2023-07-13T00:18:31;2.00;;;1.10;;
13408;SDS011;6775;49.574;11.170;2023-07-13T00:20:59;1.50;;;1.20;;
13408;SDS011;6775;49.574;11.170;2023-07-13T00:23:31;1.83;;;1.37;;
13408;SDS011;6775;49.574;11.170;2023-07-13T00:26:00;1.93;;;1.20;;
13408;SDS011;6775;49.574;11.170;2023-07-13T00:28:30;1.63;;;1.13;;
13408;SDS011;6775;49.574;11.170;2023-07-13T00:30:58;1.93;;;1.10;;
13408;SDS011;6775;49.574;11.170;2023-07-13T00:33:28;1.80;;;1.17;;
13408;SDS011;6775;49.574;11.170;2023-07-13T00:35:56;1.83;;;1.03;;
13408;SDS011;6775;49.574;11.170;2023-07-13T00:38:24;1.93;;;1.20;;
13408;SDS011;6775;49.574;11.170;2023-07-13T00:40:52;1.40;;;1.30;;
13408;SDS011;6775;49.574;11.170;2023-07-13T00:43:21;1.17;;;1.07;;
13408;SDS011;6775;49.574;11.170;2023-07-13T00:46:11;2.67;;;1.10;;
13408;SDS011;6775;49.574;11.170;2023-07-13T00:48:46;1.13;;;0.90;;
13408;SDS011;6775;49.574;11.170;2023-07-13T00:51:17;1.90;;;1.30;;
13408;SDS011;6775;49.574;11.170;2023-07-13T00:53:52;1.10;;;1.00;;
13408;SDS011;6775;49.574;11.170;2023-07-13T00:56:23;3.20;;;1.17;;
13408;SDS011;6775;49.574;11.170;2023-07-13T00:58:52;1.50;;;1.20;;
13408;SDS011;6775;49.574;11.170;2023-07-13T01:01:21;1.10;;;1.00;;
13408;SDS011;6775;49.574;11.170;2023-07-13T01:03:50;2.23;;;1.83;;
13408;SDS011;6775;49.574;11.170;2023-07-13T01:06:18;2.07;;;1.90;;
13408;SDS011;6775;49.574;11.170;2023-07-13T01:08:46;2.03;;;1.83;;
13408;SDS011;6775;49.574;11.170;2023-07-13T01:11:18;1.80;;;1.70;;
13408;SDS011;6775;49.574;11.170;2023-07-13T01:13:48;1.60;;;1.50;;
13408;SDS011;6775;49.574;11.170;2023-07-13T01:16:18;1.57;;;1.33;;
13408;SDS011;6775;49.574;11.170;2023-07-13T01:18:53;1.03;;;1.00;;
13408;SDS011;6775;49.574;11.170;2023-07-13T01:21:26;1.60;;;1.10;;
13408;SDS011;6775;49.574;11.170;2023-07-13T01:23:56;1.83;;;1.10;;
13408;SDS011;6775;49.574;11.170;2023-07-13T01:26:25;1.30;;;1.10;;
13408;SDS011;6775;49.574;11.170;2023-07-13T01:28:53;2.13;;;1.07;;
13408;SDS011;6775;49.574;11.170;2023-07-13T01:31:23;1.60;;;1.37;;
13408;SDS011;6775;49.574;11.170;2023-07-13T01:33:51;1.27;;;1.00;;
13408;SDS011;6775;49.574;11.170;2023-07-13T01:36:20;1.70;;;1.10;;
13408;SDS011;6775;49.574;11.170;2023-07-13T01:38:49;1.77;;;1.20;;
13408;SDS011;6775;49.574;11.170;2023-07-13T01:41:17;1.30;;;1.20;;
13408;SDS011;6775;49.574;11.170;2023-07-13T01:43:46;1.40;;;1.10;;
13408;SDS011;6775;49.574;11.170;2023-07-13T01:46:14;2.40;;;1.13;;
13408;SDS011;6775;49.574;11.170;2023-07-13T01:48:49;2.80;;;1.10;;
13408;SDS011;6775;49.574;11.170;2023-07-13T01:51:18;4.23;;;1.67;;
13408;SDS011;6775;49.574;11.170;2023-07-13T01:53:49;2.37;;;1.10;;
13408;SDS011;6775;49.574;11.170;2023-07-13T01:56:17;2.10;;;1.10;;
13408;SDS011;6775;49.574;11.170;2023-07-13T01:58:45;0.87;;;0.80;;
13408;SDS011;6775;49.574;11.170;2023-07-13T02:01:14;1.27;;;1.10;;
13408;SDS011;6775;49.574;11.170;2023-07-13T02:03:42;1.33;;;1.10;;
13408;SDS011;6775;49.574;11.170;2023-07-13T02:06:10;1.27;;;0.90;;
13408;SDS011;6775;49.574;11.170;2023-07-13T02:08:39;1.77;;;1.00;;
13408;SDS011;6775;49.574;11.170;2023-07-13T02:11:10;1.70;;;1.10;;
13408;SDS011;6775;49.574;11.170;2023-07-13T02:13:39;1.27;;;1.00;;
13408;SDS011;6775;49.574;11.170;2023-07-13T02:16:07;1.73;;;1.10;;
13408;SDS011;6775;49.574;11.170;2023-07-13T02:18:35;1.17;;;1.00;;
13408;SDS011;6775;49.574;11.170;2023-07-13T02:21:04;1.00;;;0.80;;
13408;SDS011;6775;49.574;11.170;2023-07-13T02:23:32;1.40;;;1.30;;
13408;SDS011;6775;49.574;11.170;2023-07-13T02:26:00;1.20;;;1.10;;
13408;SDS011;6775;49.574;11.170;2023-07-13T02:28:32;1.43;;;1.17;;
13408;SDS011;6775;49.574;11.170;2023-07-13T02:31:06;1.80;;;1.00;;
13408;SDS011;6775;49.574;11.170;2023-07-13T02:33:37;1.20;;;1.07;;
13408;SDS011;6775;49.574;11.170;2023-07-13T02:36:06;1.17;;;0.93;;
13408;SDS011;6775;49.574;11.170;2023-07-13T02:38:35;1.20;;;1.10;;
13408;SDS011;6775;49.574;11.170;2023-07-13T02:41:04;1.10;;;1.00;;
13408;SDS011;6775;49.574;11.170;2023-07-13T02:43:36;1.10;;;0.97;;
13408;SDS011;6775;49.574;11.170;2023-07-13T02:46:04;1.13;;;1.03;;
13408;SDS011;6775;49.574;11.170;2023-07-13T02:48:34;0.97;;;0.93;;
13408;SDS011;6775;49.574;11.170;2023-07-13T02:51:05;2.80;;;1.20;;
13408;SDS011;6775;49.574;11.170;2023-07-13T02:53:33;1.23;;;1.13;;
13408;SDS011;6775;49.574;11.170;2023-07-13T02:56:02;1.10;;;1.00;;
13408;SDS011;6775;49.574;11.170;2023-07-13T02:58:31;1.30;;;1.20;;
13408;SDS011;6775;49.574;11.170;2023-07-13T03:01:07;2.63;;;1.30;;
13408;SDS011;6775;49.574;11.170;2023-07-13T03:03:38;1.10;;;1.00;;
13408;SDS011;6775;49.574;11.170;2023-07-13T03:06:06;1.80;;;1.10;;
13408;SDS011;6775;49.574;11.170;2023-07-13T03:08:35;1.40;;;1.20;;
13408;SDS011;6775;49.574;11.170;2023-07-13T03:11:04;1.47;;;1.10;;
13408;SDS011;6775;49.574;11.170;2023-07-13T03:13:35;1.40;;;1.10;;
13408;SDS011;6775;49.574;11.170;2023-07-13T03:16:04;1.37;;;1.00;;
13408;SDS011;6775;49.574;11.170;2023-07-13T03:18:35;1.00;;;0.90;;
13408;SDS011;6775;49.574;11.170;2023-07-13T03:21:04;1.37;;;1.27;;
13408;SDS011;6775;49.574;11.170;2023-07-13T03:23:33;0.93;;;0.93;;
13408;SDS011;6775;49.574;11.170;2023-07-13T03:26:05;3.03;;;1.03;;
13408;SDS011;6775;49.574;11.170;2023-07-13T03:28:37;2.03;;;1.40;;
13408;SDS011;6775;49.574;11.170;2023-07-13T03:31:07;2.03;;;1.30;;
13408;SDS011;6775;49.574;11.170;2023-07-13T03:33:38;1.47;;;1.37;;
13408;SDS011;6775;49.574;11.170;2023-07-13T03:36:06;1.50;;;1.40;;
13408;SDS011;6775;49.574;11.170;2023-07-13T03:38:45;1.67;;;1.33;;
13408;SDS011;6775;49.574;11.170;2023-07-13T03:41:14;2.00;;;1.30;;
13408;SDS011;6775;49.574;11.170;2023-07-13T03:43:43;1.33;;;1.23;;
13408;SDS011;6775;49.574;11.170;2023-07-13T03:46:12;2.27;;;1.23;;
13408;SDS011;6775;49.574;11.170;2023-07-13T03:48:41;1.77;;;1.23;;
13408;SDS011;6775;49.574;11.170;2023-07-13T03:51:11;1.40;;;1.30;;
13408;SDS011;6775;49.574;11.170;2023-07-13T03:53:42;2.00;;;1.13;;
13408;SDS011;6775;49.574;11.170;2023-07-13T03:56:12;1.67;;;1.20;;
13408;SDS011;6775;49.574;11.170;2023-07-13T03:58:42;2.43;;;1.03;;
13408;SDS011;6775;49.574;11.170;2023-07-13T04:01:14;1.73;;;1.10;;
13408;SDS011;6775;49.574;11.170;2023-07-13T04:03:44;2.10;;;1.33;;
13408;SDS011;6775;49.574;11.170;2023-07-13T04:06:14;1.43;;;1.20;;
13408;SDS011;6775;49.574;11.170;2023-07-13T04:08:48;1.20;;;1.10;;
13408;SDS011;6775;49.574;11.170;2023-07-13T04:11:19;1.17;;;1.03;;
13408;SDS011;6775;49.574;11.170;2023-07-13T04:13:49;1.40;;;1.03;;
13408;SDS011;6775;49.574;11.170;2023-07-13T04:16:20;1.50;;;1.10;;
13408;SDS011;6775;49.574;11.170;2023-07-13T04:18:48;1.80;;;1.20;;
13408;SDS011;6775;49.574;11.170;2023-07-13T04:21:20;2.17;;;1.53;;
13408;SDS011;6775;49.574;11.170;2023-07-13T04:23:49;0.90;;;0.90;;
13408;SDS011;6775;49.574;11.170;2023-07-13T04:26:17;1.33;;;1.10;;
13408;SDS011;6775;49.574;11.170;2023-07-13T04:28:47;1.17;;;1.07;;
13408;SDS011;6775;49.574;11.170;2023-07-13T04:31:16;1.93;;;1.17;;
13408;SDS011;6775;49.574;11.170;2023-07-13T04:33:46;1.47;;;1.13;;
13408;SDS011;6775;49.574;11.170;2023-07-13T04:36:15;1.33;;;1.23;;
13408;SDS011;6775;49.574;11.170;2023-07-13T04:38:43;1.23;;;1.10;;
13408;SDS011;6775;49.574;11.170;2023-07-13T04:41:13;1.40;;;1.20;;
13408;SDS011;6775;49.574;11.170;2023-07-13T04:43:42;1.30;;;1.20;;
13408;SDS011;6775;49.574;11.170;2023-07-13T04:46:11;1.60;;;1.27;;
13408;SDS011;6775;49.574;11.170;2023-07-13T04:48:46;1.60;;;1.30;;
13408;SDS011;6775;49.574;11.170;2023-07-13T04:51:19;1.83;;;1.30;;
13408;SDS011;6775;49.574;11.170;2023-07-13T04:53:47;1.43;;;1.00;;
13408;SDS011;6775;49.574;11.170;2023-07-13T04:56:21;1.30;;;1.20;;
13408;SDS011;6775;49.574;11.170;2023-07-13T04:58:50;1.97;;;1.10;;
13408;SDS011;6775;49.574;11.170;2023-07-13T05:01:18;2.07;;;1.30;;
13408;SDS011;6775;49.574;11.170;2023-07-13T05:03:48;2.00;;;1.00;;
13408;SDS011;6775;49.574;11.170;2023-07-13T05:06:16;1.30;;;1.20;;
13408;SDS011;6775;49.574;11.170;2023-07-13T05:08:44;1.67;;;1.40;;
13408;SDS011;6775;49.574;11.170;2023-07-13T05:11:12;0.90;;;0.90;;
13408;SDS011;6775;49.574;11.170;2023-07-13T05:13:40;1.60;;;1.20;;
13408;SDS011;6775;49.574;11.170;2023-07-13T05:16:08;1.47;;;0.97;;
13408;SDS011;6775;49.574;11.170;2023-07-13T05:18:36;1.67;;;1.10;;
13408;SDS011;6775;49.574;11.170;2023-07-13T05:21:10;1.20;;;1.10;;
13408;SDS011;6775;49.574;11.170;2023-07-13T05:23:39;1.10;;;1.00;;
13408;SDS011;6775;49.574;11.170;2023-07-13T05:26:09;1.80;;;1.07;;
13408;SDS011;6775;49.574;11.170;2023-07-13T05:28:38;1.93;;;1.00;;
13408;SDS011;6775;49.574;11.170;2023-07-13T05:31:07;1.30;;;1.20;;
13408;SDS011;6775;49.574;11.170;2023-07-13T05:33:37;1.73;;;1.20;;
13408;SDS011;6775;49.574;11.170;2023-07-13T05:36:06;1.53;;;1.13;;
13408;SDS011;6775;49.574;11.170;2023-07-13T05:38:36;1.03;;;0.93;;
13408;SDS011;6775;49.574;11.170;2023-07-13T05:41:04;2.83;;;1.37;;
13408;SDS011;6775;49.574;11.170;2023-07-13T05:43:32;1.87;;;1.13;;
13408;SDS011;6775;49.574;11.170;2023-07-13T05:46:00;1.63;;;1.13;;
13408;SDS011;6775;49.574;11.170;2023-07-13T05:48:28;1.43;;;1.00;;
13408;SDS011;6775;49.574;11.170;2023-07-13T05:50:56;2.07;;;1.20;;
13408;SDS011;6775;49.574;11.170;2023-07-13T05:53:24;1.70;;;1.00;;
13408;SDS011;6775;49.574;11.170;2023-07-13T05:55:54;1.40;;;1.07;;
13408;SDS011;6775;49.574;11.170;2023-07-13T05:58:26;1.37;;;0.90;;
13408;SDS011;6775;49.574;11.170;2023-07-13T06:00:58;1.30;;;1.20;;
13408;SDS011;6775;49.574;11.170;2023-07-13T06:03:30;2.17;;;1.40;;
13408;SDS011;6775;49.574;11.170;2023-07-13T06:05:58;2.23;;;1.10;;
13408;SDS011;6775;49.574;11.170;2023-07-13T06:08:27;1.10;;;1.07;;
13408;SDS011;6775;49.574;11.170;2023-07-13T06:11:02;1.63;;;0.90;;
13408;SDS011;6775;49.574;11.170;2023-07-13T06:13:33;2.63;;;1.30;;
13408;SDS011;6775;49.574;11.170;2023-07-13T06:16:02;2.53;;;1.13;;
13408;SDS011;6775;49.574;11.170;2023-07-13T06:18:31;1.17;;;1.07;;
13408;SDS011;6775;49.574;11.170;2023-07-13T06:21:01;1.20;;;0.90;;
13408;SDS011;6775;49.574;11.170;2023-07-13T06:23:34;1.70;;;1.20;;
13408;SDS011;6775;49.574;11.170;2023-07-13T06:26:04;2.33;;;0.97;;
13408;SDS011;6775;49.574;11.170;2023-07-13T06:28:33;2.57;;;1.10;;
13408;SDS011;6775;49.574;11.170;2023-07-13T06:31:04;1.40;;;1.00;;
13408;SDS011;6775;49.574;11.170;2023-07-13T06:33:35;1.40;;;0.90;;
13408;SDS011;6775;49.574;11.170;2023-07-13T06:36:04;2.00;;;1.00;;
13408;SDS011;6775;49.574;11.170;2023-07-13T06:38:35;1.43;;;1.00;;
13408;SDS011;6775;49.574;11.170;2023-07-13T06:41:05;1.40;;;1.10;;
13408;SDS011;6775;49.574;11.170;2023-07-13T06:43:34;1.07;;;0.90;;
13408;SDS011;6775;49.574;11.170;2023-07-13T06:46:02;1.37;;;0.83;;
13408;SDS011;6775;49.574;11.170;2023-07-13T06:48:30;1.13;;;0.90;;
13408;SDS011;6775;49.574;11.170;2023-07-13T06:50:58;1.03;;;0.93;;
13408;SDS011;6775;49.574;11.170;2023-07-13T06:53:26;1.03;;;0.80;;
13408;SDS011;6775;49.574;11.170;2023-07-13T06:55:54;1.43;;;1.00;;
13408;SDS011;6775;49.574;11.170;2023-07-13T06:58:24;1.50;;;0.90;;
13408;SDS011;6775;49.574;11.170;2023-07-13T07:00:52;1.50;;;1.00;;
13408;SDS011;6775;49.574;11.170;2023-07-13T07:03:20;0.90;;;0.90;;
13408;SDS011;6775;49.574;11.170;2023-07-13T07:05:49;1.83;;;1.00;;
13408;SDS011;6775;49.574;11.170;2023-07-13T07:08:17;1.73;;;1.00;;
13408;SDS011;6775;49.574;11.170;2023-07-13T07:10:45;2.30;;;1.10;;
13408;SDS011;6775;49.574;11.170;2023-07-13T07:13:13;0.70;;;0.70;;
13408;SDS011;6775;49.574;11.170;2023-07-13T07:15:42;0.70;;;0.70;;
13408;SDS011;6775;49.574;11.170;2023-07-13T07:18:10;1.17;;;0.80;;
13408;SDS011;6775;49.574;11.170;2023-07-13T07:20:38;0.80;;;0.80;;
13408;SDS011;6775;49.574;11.170;2023-07-13T07:23:06;1.07;;;0.90;;
13408;SDS011;6775;49.574;11.170;2023-07-13T07:25:35;1.03;;;0.90;;
13408;SDS011;6775;49.574;11.170;2023-07-13T07:28:08;1.53;;;0.90;;
13408;SDS011;6775;49.574;11.170;2023-07-13T07:30:42;0.93;;;0.80;;
13408;SDS011;6775;49.574;11.170;2023-07-13T07:33:13;1.10;;;0.87;;
13408;SDS011;6775;49.574;11.170;2023-07-13T07:35:42;1.87;;;1.27;;
13408;SDS011;6775;49.574;11.170;2023-07-13T07:38:30;1.17;;;0.80;;
13408;SDS011;6775;49.574;11.170;2023-07-13T07:40:58;1.13;;;0.93;;
13408;SDS011;6775;49.574;11.170;2023-07-13T07:43:33;1.13;;;1.00;;
13408;SDS011;6775;49.574;11.170;2023-07-13T07:46:02;0.80;;;0.70;;
13408;SDS011;6775;49.574;11.170;2023-07-13T07:48:31;1.23;;;0.73;;
13408;SDS011;6775;49.574;11.170;2023-07-13T07:50:59;1.30;;;1.00;;
13408;SDS011;6775;49.574;11.170;2023-07-13T07:53:27;1.10;;;0.70;;
13408;SDS011;6775;49.574;11.170;2023-07-13T07:55:59;1.40;;;1.10;;
13408;SDS011;6775;49.574;11.170;2023-07-13T07:58:47;2.90;;;0.80;;
13408;SDS011;6775;49.574;11.170;2023-07-13T08:01:19;3.53;;;1.20;;
13408;SDS011;6775;49.574;11.170;2023-07-13T08:03:51;1.77;;;0.97;;
13408;SDS011;6775;49.574;11.170;2023-07-13T08:06:22;1.23;;;0.80;;
13408;SDS011;6775;49.574;11.170;2023-07-13T08:08:54;0.90;;;0.80;;
13408;SDS011;6775;49.574;11.170;2023-07-13T08:11:22;1.37;;;0.87;;
13408;SDS011;6775;49.574;11.170;2023-07-13T08:13:53;1.40;;;0.90;;
13408;SDS011;6775;49.574;11.170;2023-07-13T08:16:23;1.03;;;0.93;;
13408;SDS011;6775;49.574;11.170;2023-07-13T08:18:51;1.30;;;0.90;;
13408;SDS011;6775;49.574;11.170;2023-07-13T08:21:19;2.77;;;0.87;;
13408;SDS011;6775;49.574;11.170;2023-07-13T08:23:48;1.00;;;0.90;;
13408;SDS011;6775;49.574;11.170;2023-07-13T08:26:16;1.27;;;0.90;;
13408;SDS011;6775;49.574;11.170;2023-07-13T08:28:44;1.00;;;0.87;;
13408;SDS011;6775;49.574;11.170;2023-07-13T08:31:12;5.30;;;1.00;;
13408;SDS011;6775;49.574;11.170;2023-07-13T08:33:43;1.87;;;1.00;;
13408;SDS011;6775;49.574;11.170;2023-07-13T08:36:11;1.83;;;0.97;;
13408;SDS011;6775;49.574;11.170;2023-07-13T08:38:39;2.03;;;1.00;;
13408;SDS011;6775;49.574;11.170;2023-07-13T08:41:12;1.23;;;0.70;;
13408;SDS011;6775;49.574;11.170;2023-07-13T08:43:43;1.17;;;0.60;;
13408;SDS011;6775;49.574;11.170;2023-07-13T08:46:18;1.00;;;0.77;;
13408;SDS011;6775;49.574;11.170;2023-07-13T08:48:59;0.87;;;0.70;;
13408;SDS011;6775;49.574;11.170;2023-07-13T08:51:33;0.60;;;0.60;;
13408;SDS011;6775;49.574;11.170;2023-07-13T08:54:11;1.50;;;0.80;;
13408;SDS011;6775;49.574;11.170;2023-07-13T08:56:48;2.10;;;0.77;;
13408;SDS011;6775;49.574;11.170;2023-07-13T08:59:20;1.30;;;0.80;;
13408;SDS011;6775;49.574;11.170;2023-07-13T09:01:58;1.23;;;0.80;;
13408;SDS011;6775;49.574;11.170;2023-07-13T09:04:53;0.80;;;0.60;;
13408;SDS011;6775;49.574;11.170;2023-07-13T09:07:34;2.47;;;0.80;;
13408;SDS011;6775;49.574;11.170;2023-07-13T09:10:23;0.40;;;0.40;;
13408;SDS011;6775;49.574;11.170;2023-07-13T09:13:01;0.87;;;0.60;;
13408;SDS011;6775;49.574;11.170;2023-07-13T09:15:47;1.07;;;0.70;;
13408;SDS011;6775;49.574;11.170;2023-07-13T09:18:19;1.10;;;0.70;;
13408;SDS011;6775;49.574;11.170;2023-07-13T09:20:57;1.00;;;0.70;;
13408;SDS011;6775;49.574;11.170;2023-07-13T09:23:31;1.70;;;1.13;;
13408;SDS011;6775;49.574;11.170;2023-07-13T09:26:00;1.43;;;0.80;;
13408;SDS011;6775;49.574;11.170;2023-07-13T09:28:34;0.70;;;0.70;;
13408;SDS011;6775;49.574;11.170;2023-07-13T09:31:07;0.80;;;0.70;;
13408;SDS011;6775;49.574;11.170;2023-07-13T09:33:41;1.03;;;0.60;;
13408;SDS011;6775;49.574;11.170;2023-07-13T09:36:17;1.00;;;0.80;;
13408;SDS011;6775;49.574;11.170;2023-07-13T09:38:58;0.77;;;0.60;;
13408;SDS011;6775;49.574;11.170;2023-07-13T09:41:34;2.00;;;0.80;;
13408;SDS011;6775;49.574;11.170;2023-07-13T09:44:17;2.53;;;0.77;;
13408;SDS011;6775;49.574;11.170;2023-07-13T09:46:57;1.17;;;0.80;;
13408;SDS011;6775;49.574;11.170;2023-07-13T09:49:25;1.27;;;0.60;;
13408;SDS011;6775;49.574;11.170;2023-07-13T09:52:00;1.53;;;0.80;;
13408;SDS011;6775;49.574;11.170;2023-07-13T09:54:32;1.20;;;0.67;;
13408;SDS011;6775;49.574;11.170;2023-07-13T09:57:03;0.70;;;0.70;;
13408;SDS011;6775;49.574;11.170;2023-07-13T09:59:43;0.60;;;0.60;;
13408;SDS011;6775;49.574;11.170;2023-07-13T10:02:23;2.13;;;0.73;;
13408;SDS011;6775;49.574;11.170;2023-07-13T10:04:57;1.20;;;0.90;;
13408;SDS011;6775;49.574;11.170;2023-07-13T10:07:28;2.27;;;0.67;;
13408;SDS011;6775;49.574;11.170;2023-07-13T10:09:58;1.83;;;0.80;;
13408;SDS011;6775;49.574;11.170;2023-07-13T10:12:30;1.50;;;0.63;;
13408;SDS011;6775;49.574;11.170;2023-07-13T10:15:04;1.57;;;0.80;;
13408;SDS011;6775;49.574;11.170;2023-07-13T10:17:49;2.83;;;0.87;;
13408;SDS011;6775;49.574;11.170;2023-07-13T10:20:20;1.30;;;0.60;;
13408;SDS011;6775;49.574;11.170;2023-07-13T10:22:51;0.83;;;0.67;;
13408;SDS011;6775;49.574;11.170;2023-07-13T10:25:27;1.63;;;0.70;;
13408;SDS011;6775;49.574;11.170;2023-07-13T10:28:00;2.23;;;0.97;;
13408;SDS011;6775;49.574;11.170;2023-07-13T10:30:38;1.20;;;0.70;;
13408;SDS011;6775;49.574;11.170;2023-07-13T10:33:12;1.30;;;0.80;;
13408;SDS011;6775;49.574;11.170;2023-07-13T10:35:43;1.30;;;0.80;;
13408;SDS011;6775;49.574;11.170;2023-07-13T10:38:15;1.17;;;0.80;;
13408;SDS011;6775;49.574;11.170;2023-07-13T10:40:52;1.50;;;0.77;;
13408;SDS011;6775;49.574;11.170;2023-07-13T10:43:27;1.47;;;0.50;;
13408;SDS011;6775;49.574;11.170;2023-07-13T10:46:03;0.63;;;0.60;;
13408;SDS011;6775;49.574;11.170;2023-07-13T10:48:34;0.83;;;0.53;;
13408;SDS011;6775;49.574;11.170;2023-07-13T10:51:05;1.60;;;0.60;;
13408;SDS011;6775;49.574;11.170;2023-07-13T10:53:36;2.60;;;0.90;;
13408;SDS011;6775;49.574;11.170;2023-07-13T10:56:15;1.43;;;0.70;;
13408;SDS011;6775;49.574;11.170;2023-07-13T10:59:01;1.10;;;0.70;;
13408;SDS011;6775;49.574;11.170;2023-07-13T11:01:46;2.00;;;0.77;;
13408;SDS011;6775;49.574;11.170;2023-07-13T11:04:22;0.70;;;0.60;;
13408;SDS011;6775;49.574;11.170;2023-07-13T11:06:53;0.70;;;0.60;;
13408;SDS011;6775;49.574;11.170;2023-07-13T11:09:38;1.27;;;0.80;;
13408;SDS011;6775;49.574;11.170;2023-07-13T11:12:26;1.80;;;0.70;;
13408;SDS011;6775;49.574;11.170;2023-07-13T11:15:27;1.17;;;0.60;;
13408;SDS011;6775;49.574;11.170;2023-07-13T11:18:19;0.93;;;0.73;;
13408;SDS011;6775;49.574;11.170;2023-07-13T11:20:51;1.50;;;1.00;;
13408;SDS011;6775;49.574;11.170;2023-07-13T11:24:01;0.80;;;0.80;;
13408;SDS011;6775;49.574;11.170;2023-07-13T11:26:40;1.70;;;0.67;;
13408;SDS011;6775;49.574;11.170;2023-07-13T11:29:14;0.97;;;0.80;;
13408;SDS011;6775;49.574;11.170;2023-07-13T11:32:00;1.17;;;0.80;;
13408;SDS011;6775;49.574;11.170;2023-07-13T11:34:50;0.70;;;0.70;;
13408;SDS011;6775;49.574;11.170;2023-07-13T11:37:18;0.80;;;0.70;;
13408;SDS011;6775;49.574;11.170;2023-07-13T11:39:48;0.70;;;0.60;;
13408;SDS011;6775;49.574;11.170;2023-07-13T11:42:20;0.50;;;0.50;;
13408;SDS011;6775;49.574;11.170;2023-07-13T11:44:50;0.90;;;0.80;;
13408;SDS011;6775;49.574;11.170;2023-07-13T11:47:39;0.70;;;0.70;;
13408;SDS011;6775;49.574;11.170;2023-07-13T11:50:16;1.00;;;0.70;;
13408;SDS011;6775;49.574;11.170;2023-07-13T11:52:47;0.60;;;0.60;;
13408;SDS011;6775;49.574;11.170;2023-07-13T11:55:18;3.53;;;1.10;;
13408;SDS011;6775;49.574;11.170;2023-07-13T11:57:51;1.20;;;0.80;;
13408;SDS011;6775;49.574;11.170;2023-07-13T12:00:29;0.60;;;0.60;;
13408;SDS011;6775;49.574;11.170;2023-07-13T12:03:00;1.47;;;0.80;;
13408;SDS011;6775;49.574;11.170;2023-07-13T12:05:32;1.77;;;0.90;;
13408;SDS011;6775;49.574;11.170;2023-07-13T12:08:08;1.67;;;1.00;;
13408;SDS011;6775;49.574;11.170;2023-07-13T12:10:55;0.83;;;0.67;;
13408;SDS011;6775;49.574;11.170;2023-07-13T12:13:28;1.00;;;0.83;;
13408;SDS011;6775;49.574;11.170;2023-07-13T12:15:56;1.93;;;0.80;;
13408;SDS011;6775;49.574;11.170;2023-07-13T12:18:28;0.80;;;0.80;;
13408;SDS011;6775;49.574;11.170;2023-07-13T12:21:00;1.33;;;0.90;;
13408;SDS011;6775;49.574;11.170;2023-07-13T12:23:32;1.87;;;0.80;;
13408;SDS011;6775;49.574;11.170;2023-07-13T12:26:03;1.93;;;0.83;;
13408;SDS011;6775;49.574;11.170;2023-07-13T12:28:38;2.20;;;0.80;;
13408;SDS011;6775;49.574;11.170;2023-07-13T12:31:22;1.87;;;0.90;;
13408;SDS011;6775;49.574;11.170;2023-07-13T12:33:58;1.37;;;0.77;;
13408;SDS011;6775;49.574;11.170;2023-07-13T12:36:29;3.33;;;1.03;;
13408;SDS011;6775;49.574;11.170;2023-07-13T12:39:04;1.17;;;0.70;;
13408;SDS011;6775;49.574;11.170;2023-07-13T12:41:41;1.40;;;0.90;;
13408;SDS011;6775;49.574;11.170;2023-07-13T12:44:13;0.93;;;0.80;;
13408;SDS011;6775;49.574;11.170;2023-07-13T12:46:54;0.87;;;0.80;;
13408;SDS011;6775;49.574;11.170;2023-07-13T12:49:32;2.33;;;1.10;;
13408;SDS011;6775;49.574;11.170;2023-07-13T12:52:03;1.77;;;0.70;;
13408;SDS011;6775;49.574;11.170;2023-07-13T12:54:51;1.50;;;0.87;;
13408;SDS011;6775;49.574;11.170;2023-07-13T12:57:32;1.97;;;1.13;;
13408;SDS011;6775;49.574;11.170;2023-07-13T13:00:19;1.33;;;0.90;;
13408;SDS011;6775;49.574;11.170;2023-07-13T13:02:52;1.40;;;0.90;;
13408;SDS011;6775;49.574;11.170;2023-07-13T13:05:41;1.57;;;1.00;;
13408;SDS011;6775;49.574;11.170;2023-07-13T13:08:11;1.43;;;0.90;;
13408;SDS011;6775;49.574;11.170;2023-07-13T13:10:40;1.33;;;0.70;;
13408;SDS011;6775;49.574;11.170;2023-07-13T13:13:08;0.83;;;0.70;;
13408;SDS011;6775;49.574;11.170;2023-07-13T13:15:38;1.17;;;1.07;;
13408;SDS011;6775;49.574;11.170;2023-07-13T13:18:09;1.33;;;1.00;;
13408;SDS011;6775;49.574;11.170;2023-07-13T13:20:44;0.70;;;0.60;;
13408;SDS011;6775;49.574;11.170;2023-07-13T13:23:14;0.80;;;0.80;;
13408;SDS011;6775;49.574;11.170;2023-07-13T13:25:44;1.43;;;0.70;;
13408;SDS011;6775;49.574;11.170;2023-07-13T13:28:16;2.33;;;0.80;;
13408;SDS011;6775;49.574;11.170;2023-07-13T13:30:49;1.60;;;1.00;;
13408;SDS011;6775;49.574;11.170;2023-07-13T13:33:19;2.83;;;0.80;;
13408;SDS011;6775;49.574;11.170;2023-07-13T13:35:49;1.53;;;0.80;;
13408;SDS011;6775;49.574;11.170;2023-07-13T13:38:19;1.17;;;1.00;;
13408;SDS011;6775;49.574;11.170;2023-07-13T13:40:52;2.43;;;0.93;;
13408;SDS011;6775;49.574;11.170;2023-07-13T13:43:22;1.73;;;0.97;;
13408;SDS011;6775;49.574;11.170;2023-07-13T13:45:55;1.23;;;1.00;;
13408;SDS011;6775;49.574;11.170;2023-07-13T13:48:26;1.00;;;0.90;;
13408;SDS011;6775;49.574;11.170;2023-07-13T13:50:59;1.03;;;0.93;;
13408;SDS011;6775;49.574;11.170;2023-07-13T13:53:39;1.43;;;1.00;;
13408;SDS011;6775;49.574;11.170;2023-07-13T13:56:07;2.20;;;0.87;;
13408;SDS011;6775;49.574;11.170;2023-07-13T13:58:36;2.70;;;1.10;;
13408;SDS011;6775;49.574;11.170;2023-07-13T14:01:08;1.13;;;0.80;;
13408;SDS011;6775;49.574;11.170;2023-07-13T14:03:44;1.77;;;0.90;;
13408;SDS011;6775;49.574;11.170;2023-07-13T14:06:15;1.00;;;0.70;;
13408;SDS011;6775;49.574;11.170;2023-07-13T14:08:43;1.50;;;0.87;;
13408;SDS011;6775;49.574;11.170;2023-07-13T14:11:13;1.63;;;0.87;;
13408;SDS011;6775;49.574;11.170;2023-07-13T14:13:44;1.33;;;0.60;;
13408;SDS011;6775;49.574;11.170;2023-07-13T14:16:18;0.87;;;0.80;;
13408;SDS011;6775;49.574;11.170;2023-07-13T14:18:48;0.70;;;0.70;;
13408;SDS011;6775;49.574;11.170;2023-07-13T14:21:19;0.70;;;0.70;;
13408;SDS011;6775;49.574;11.170;2023-07-13T14:23:49;0.70;;;0.70;;
13408;SDS011;6775;49.574;11.170;2023-07-13T14:26:18;1.00;;;0.90;;
13408;SDS011;6775;49.574;11.170;2023-07-13T14:28:50;1.37;;;0.90;;
13408;SDS011;6775;49.574;11.170;2023-07-13T14:31:23;1.20;;;0.83;;
13408;SDS011;6775;49.574;11.170;2023-07-13T14:33:56;1.00;;;0.90;;
13408;SDS011;6775;49.574;11.170;2023-07-13T14:36:26;1.37;;;0.80;;
13408;SDS011;6775;49.574;11.170;2023-07-13T14:38:58;1.90;;;1.00;;
13408;SDS011;6775;49.574;11.170;2023-07-13T14:41:37;3.23;;;1.00;;
13408;SDS011;6775;49.574;11.170;2023-07-13T14:44:08;1.17;;;0.83;;
13408;SDS011;6775;49.574;11.170;2023-07-13T14:46:40;1.20;;;0.90;;
13408;SDS011;6775;49.574;11.170;2023-07-13T14:49:13;1.93;;;0.87;;
13408;SDS011;6775;49.574;11.170;2023-07-13T14:51:51;2.57;;;1.17;;
13408;SDS011;6775;49.574;11.170;2023-07-13T14:54:19;1.83;;;0.70;;
13408;SDS011;6775;49.574;11.170;2023-07-13T14:56:47;0.97;;;0.90;;
13408;SDS011;6775;49.574;11.170;2023-07-13T14:59:16;2.67;;;1.03;;
13408;SDS011;6775;49.574;11.170;2023-07-13T15:01:47;1.83;;;1.30;;
13408;SDS011;6775;49.574;11.170;2023-07-13T15:04:17;1.43;;;1.10;;
13408;SDS011;6775;49.574;11.170;2023-07-13T15:06:55;2.10;;;1.13;;
13408;SDS011;6775;49.574;11.170;2023-07-13T15:09:25;1.73;;;1.10;;
13408;SDS011;6775;49.574;11.170;2023-07-13T15:11:55;1.20;;;0.90;;
13408;SDS011;6775;49.574;11.170;2023-07-13T15:14:25;2.77;;;0.90;;
13408;SDS011;6775;49.574;11.170;2023-07-13T15:16:58;1.20;;;0.90;;